Terminal Aerodrome Forecast
Issued by NWS

Home | Current Version | Previous Version | Text Only | Print | Product List | Glossary On
Versions: 1 2 3 4 5 6 7 8 9 10 11 12 13 14 15 16 17 18
544
FTUS42 KMLB 280521
TAFSFB
TAF
KSFB 280521Z 2806/2906 36003KT P6SM FEW005 SCT050 BKN250
      TEMPO 2806/2808 BKN005
     FM281500 08005KT P6SM SCT025 SCT250
     FM281900 08010KT P6SM VCTS SCT035CB BKN080
      TEMPO 2819/2822 3SM TSRA BKN025CB
     FM290000 07007KT P6SM VCSH SCT025 BKN070=

USA.gov is the U.S. government's official web portal to all federal, state and local government web resources and services.